Time;durP1;ratioP1;P1;durP2;ratioP2;P2;SDS_P1;SDS_P2;PMS_P1;PMS_P2;Temp;Humidity;BMP_temperature;BMP_pressure;BME280_temperature;BME280_humidity;BME280_pressure;Samples;Min_cycle;Max_cycle;Signal;HPM_P1;HPM_P2
2022/07/18 00:00:06;;;;;;;3.62;1.57;;;;;;;13.64;73.19;100990.66;1739374;81;21067;-57
2022/07/18 00:02:32;;;;;;;5.53;1.70;;;;;;;13.67;73.31;100994.38;1739155;80;21087;-57
2022/07/18 00:04:59;;;;;;;3.55;1.37;;;;;;;13.71;73.34;100998.44;1736549;80;21031;-58
2022/07/18 00:07:27;;;;;;;3.10;1.15;;;;;;;13.78;73.41;100994.79;1738803;80;21035;-58
2022/07/18 00:09:53;;;;;;;4.03;1.70;;;;;;;13.78;73.35;100991.31;1741888;81;21015;-58
2022/07/18 00:12:21;;;;;;;4.60;1.87;;;;;;;13.74;73.44;100993.39;1739190;80;21020;-58
2022/07/18 00:14:48;;;;;;;4.17;1.32;;;;;;;13.70;73.42;100997.23;1729572;80;21228;-58
2022/07/18 00:17:14;;;;;;;4.00;1.40;;;;;;;13.66;73.39;100997.98;1733943;80;21748;-58
2022/07/18 00:19:41;;;;;;;4.15;1.30;;;;;;;13.70;73.26;100994.59;1740313;80;21487;-58
2022/07/18 00:22:08;;;;;;;3.80;1.55;;;;;;;13.76;73.44;100983.51;1739260;80;21323;-58
2022/07/18 00:24:37;;;;;;;3.80;1.77;;;;;;;13.83;73.48;100987.30;1729075;80;21031;-58
2022/07/18 00:27:04;;;;;;;3.70;1.50;;;;;;;13.93;73.53;100993.98;1724384;80;21144;-58
2022/07/18 00:29:32;;;;;;;2.98;1.27;;;;;;;13.97;73.26;100990.59;1741796;82;21062;-58
2022/07/18 00:31:58;;;;;;;3.85;1.45;;;;;;;14.03;73.05;100998.02;1733948;82;21043;-58
2022/07/18 00:34:26;;;;;;;3.65;1.42;;;;;;;14.12;72.63;100994.58;1731445;80;21017;-58
2022/07/18 00:36:52;;;;;;;3.55;1.60;;;;;;;14.13;72.43;100987.83;1725311;82;21059;-58
2022/07/18 00:39:18;;;;;;;3.72;1.57;;;;;;;14.16;72.39;100992.53;1739784;80;21134;-58
2022/07/18 00:41:47;;;;;;;4.53;1.45;;;;;;;14.15;72.23;100993.00;1733044;80;21102;-58
2022/07/18 00:44:20;;;;;;;3.42;1.60;;;;;;;14.15;72.04;100995.64;1728082;80;21114;-58
2022/07/18 00:46:50;;;;;;;4.28;1.60;;;;;;;14.17;71.84;100997.70;1737411;80;21545;-58
2022/07/18 00:49:17;;;;;;;3.58;1.55;;;;;;;14.11;71.74;100996.39;1730214;80;21141;-58
2022/07/18 00:51:45;;;;;;;3.55;1.45;;;;;;;14.05;71.93;100996.91;1740996;81;21060;-57
2022/07/18 00:54:12;;;;;;;4.22;1.75;;;;;;;13.94;72.08;101007.09;1737119;80;21035;-58
2022/07/18 00:56:39;;;;;;;3.50;1.57;;;;;;;13.80;72.44;101011.39;1732707;80;21065;-58
2022/07/18 00:59:06;;;;;;;7.28;2.00;;;;;;;13.70;72.77;101011.78;1723655;80;21061;-58
2022/07/18 01:01:48;;;;;;;3.25;1.45;;;;;;;13.67;72.92;101013.38;1741670;82;21063;-57
2022/07/18 01:04:21;;;;;;;3.45;1.15;;;;;;;13.68;72.97;101013.72;1737902;80;21071;-58
2022/07/18 01:06:49;;;;;;;4.60;1.47;;;;;;;13.68;73.10;101018.52;1724255;80;21098;-58
2022/07/18 01:09:17;;;;;;;6.37;1.42;;;;;;;13.70;73.28;101014.42;1732025;80;22588;-58
2022/07/18 01:11:45;;;;;;;4.30;1.60;;;;;;;13.65;73.34;101005.58;1741513;80;21409;-58
2022/07/18 01:14:11;;;;;;;4.47;1.92;;;;;;;13.62;73.52;101006.32;1738247;80;20992;-58
2022/07/18 01:16:38;;;;;;;4.78;1.37;;;;;;;13.57;73.49;101008.02;1741628;81;21117;-58
2022/07/18 01:19:05;;;;;;;5.72;1.60;;;;;;;13.55;73.58;101014.75;1738642;80;21047;-58
2022/07/18 01:21:31;;;;;;;4.33;1.52;;;;;;;13.56;73.48;101007.16;1741250;82;21063;-58
2022/07/18 01:23:58;;;;;;;3.85;1.35;;;;;;;13.60;73.43;101013.52;1736252;80;21055;-57
2022/07/18 01:26:24;;;;;;;4.72;1.60;;;;;;;13.58;73.45;101007.52;1730870;81;21039;-57
2022/07/18 01:28:51;;;;;;;5.55;1.67;;;;;;;13.54;73.64;101013.55;1732825;80;21186;-57
2022/07/18 01:31:18;;;;;;;3.92;1.47;;;;;;;13.47;73.78;101017.18;1741154;81;21097;-57
2022/07/18 01:33:45;;;;;;;3.77;1.55;;;;;;;13.39;73.93;101018.29;1730760;80;21058;-58
2022/07/18 01:36:11;;;;;;;4.03;1.50;;;;;;;13.34;74.25;101019.98;1737401;82;21036;-57
2022/07/18 01:38:38;;;;;;;4.30;1.50;;;;;;;13.34;74.31;101026.59;1734375;80;21055;-58
2022/07/18 01:41:05;;;;;;;3.62;1.52;;;;;;;13.35;74.33;101022.16;1741368;80;21135;-58
2022/07/18 01:43:32;;;;;;;4.20;1.50;;;;;;;13.36;74.41;101031.75;1728927;80;21040;-58
2022/07/18 01:45:58;;;;;;;3.40;1.40;;;;;;;13.32;74.59;101029.84;1738520;80;21047;-58
2022/07/18 01:48:25;;;;;;;4.35;1.50;;;;;;;13.30;74.77;101020.34;1731523;80;21063;-58
2022/07/18 01:50:52;;;;;;;3.55;1.42;;;;;;;13.29;74.84;101022.62;1704829;83;21020;-58
2022/07/18 01:53:18;;;;;;;4.42;1.40;;;;;;;13.37;75.02;101029.48;1737826;80;22204;-58
2022/07/18 01:55:45;;;;;;;3.60;1.50;;;;;;;13.45;74.80;101031.02;1740484;81;21581;-58
2022/07/18 01:58:11;;;;;;;3.12;1.32;;;;;;;13.46;74.77;101033.16;1740943;80;21467;-58
2022/07/18 02:00:38;;;;;;;5.90;2.10;;;;;;;13.43;74.77;101030.31;1728403;81;21621;-58
2022/07/18 02:03:04;;;;;;;4.03;1.57;;;;;;;13.36;74.74;101026.47;1728725;80;21071;-58
2022/07/18 02:05:31;;;;;;;5.97;1.87;;;;;;;13.35;75.05;101035.38;1728623;80;21190;-58
2022/07/18 02:07:58;;;;;;;5.45;2.17;;;;;;;13.45;75.14;101032.80;1732884;80;21374;-57
2022/07/18 02:10:25;;;;;;;3.98;1.72;;;;;;;13.58;74.89;101030.83;1733520;80;21656;-58
2022/07/18 02:12:51;;;;;;;4.37;2.12;;;;;;;13.62;74.56;101034.09;1732508;80;21545;-58
2022/07/18 02:15:18;;;;;;;5.37;2.35;;;;;;;13.60;74.50;101033.34;1731781;81;21565;-58
2022/07/18 02:17:45;;;;;;;5.67;2.08;;;;;;;13.65;74.36;101045.70;1732245;80;21753;-58
2022/07/18 02:20:12;;;;;;;4.67;2.17;;;;;;;13.70;74.00;101038.23;1739071;82;20996;-58
2022/07/18 02:22:39;;;;;;;4.00;1.75;;;;;;;13.72;73.85;101036.31;1739132;80;21075;-59
2022/07/18 02:25:08;;;;;;;4.72;2.30;;;;;;;13.74;73.73;101042.31;1743543;81;21577;-58
2022/07/18 02:27:35;;;;;;;5.47;2.02;;;;;;;13.69;73.61;101041.36;1751405;80;21101;-58
2022/07/18 02:30:05;;;;;;;6.28;2.17;;;;;;;13.61;73.79;101054.37;1751801;80;22124;-57
2022/07/18 02:32:32;;;;;;;4.53;2.00;;;;;;;13.56;73.97;101046.81;1742191;80;21043;-58
2022/07/18 02:34:59;;;;;;;4.62;2.05;;;;;;;13.63;73.84;101047.64;1746156;80;21034;-58
2022/07/18 02:37:26;;;;;;;6.30;2.65;;;;;;;13.61;73.79;101050.91;1752707;81;21086;-58
2022/07/18 02:39:52;;;;;;;5.22;2.30;;;;;;;13.61;73.95;101054.87;1753838;80;21098;-59
2022/07/18 02:42:19;;;;;;;5.20;2.05;;;;;;;13.55;74.21;101059.70;1747588;81;21180;-58
2022/07/18 02:44:46;;;;;;;5.28;1.92;;;;;;;13.55;74.55;101050.94;1749180;80;21117;-58
2022/07/18 02:47:13;;;;;;;6.12;2.12;;;;;;;13.63;74.71;101048.97;1748225;80;21627;-59
2022/07/18 02:49:39;;;;;;;5.70;2.10;;;;;;;13.74;74.32;101053.72;1751037;80;21549;-58
2022/07/18 02:52:08;;;;;;;4.60;2.37;;;;;;;13.75;74.07;101046.62;1752122;80;21497;-58
2022/07/18 02:54:36;;;;;;;4.53;2.02;;;;;;;13.75;74.03;101054.09;1752708;80;21038;-58
2022/07/18 02:57:04;;;;;;;7.75;2.62;;;;;;;13.68;73.97;101062.16;1754846;80;21444;-58
2022/07/18 02:59:30;;;;;;;5.03;2.80;;;;;;;13.61;74.28;101054.37;1747394;80;21015;-59
2022/07/18 03:01:57;;;;;;;5.60;2.42;;;;;;;13.61;74.68;101053.55;1753906;80;21033;-59
2022/07/18 03:04:24;;;;;;;5.20;2.10;;;;;;;13.71;74.88;101047.85;1747924;80;21063;-58
2022/07/18 03:06:50;;;;;;;4.62;2.02;;;;;;;13.83;74.63;101050.79;1752647;81;21164;-59
2022/07/18 03:09:17;;;;;;;5.53;2.72;;;;;;;13.94;74.37;101055.20;1750480;80;21086;-58
2022/07/18 03:11:43;;;;;;;5.00;2.60;;;;;;;14.02;74.40;101062.02;1750560;81;21110;-59
2022/07/18 03:14:12;;;;;;;4.17;2.25;;;;;;;14.05;74.20;101065.70;1749476;80;21505;-58
2022/07/18 03:16:38;;;;;;;5.47;2.42;;;;;;;14.03;74.08;101066.33;1745563;81;21160;-58
2022/07/18 03:19:05;;;;;;;4.70;2.58;;;;;;;14.00;74.09;101064.42;1746224;80;21667;-58
2022/07/18 03:21:31;;;;;;;5.60;2.52;;;;;;;14.05;73.97;101068.84;1713889;83;21426;-58
2022/07/18 03:23:58;;;;;;;4.67;2.40;;;;;;;14.11;73.99;101075.78;1715540;82;21057;-59
2022/07/18 03:26:24;;;;;;;5.92;2.85;;;;;;;14.15;73.96;101083.47;1693684;84;21052;-59
2022/07/18 03:28:51;;;;;;;4.90;2.20;;;;;;;14.17;74.13;101078.88;1749112;80;21067;-59
2022/07/18 03:31:17;;;;;;;6.78;2.58;;;;;;;14.26;74.04;101084.25;1745306;82;21177;-59
2022/07/18 03:33:44;;;;;;;6.65;2.65;;;;;;;14.36;73.57;101090.93;1743433;80;21093;-58
2022/07/18 03:36:11;;;;;;;4.67;2.50;;;;;;;14.40;73.30;101086.20;1742532;80;21060;-58
2022/07/18 03:50:52;;;;;;;5.72;2.05;;;;;;;15.12;71.50;101089.77;1837182;76;22853;-58
2022/07/18 03:53:18;;;;;;;4.55;2.27;;;;;;;15.23;70.67;101095.80;1842175;75;21010;-58
2022/07/18 03:55:45;;;;;;;5.05;2.37;;;;;;;15.16;70.27;101089.83;1846316;75;21096;-58
2022/07/18 03:58:12;;;;;;;3.85;1.82;;;;;;;14.99;70.36;101089.50;1849690;75;21235;-58
2022/07/18 04:00:39;;;;;;;5.90;2.00;;;;;;;14.81;70.91;101090.64;1841786;75;21096;-58
2022/07/18 04:03:05;;;;;;;4.90;2.12;;;;;;;14.73;71.19;101088.30;1845204;75;21037;-58
2022/07/18 04:05:32;;;;;;;5.45;2.02;;;;;;;14.71;71.31;101087.58;1848753;75;21067;-58
2022/07/18 04:07:59;;;;;;;4.30;1.90;;;;;;;14.69;71.55;101089.03;1851660;75;21126;-58
2022/07/18 04:10:25;;;;;;;6.97;2.47;;;;;;;14.72;71.68;101083.97;1850778;75;21355;-57
2022/07/18 04:12:54;;;;;;;5.05;2.15;;;;;;;14.72;71.62;101087.94;1850905;75;21029;-59
2022/07/18 04:15:25;;;;;;;4.12;1.95;;;;;;;14.66;71.77;101082.20;1841672;75;21037;-59
2022/07/18 04:17:52;;;;;;;5.85;2.00;;;;;;;14.65;71.87;101084.98;1837072;75;21057;-59
2022/07/18 04:20:20;;;;;;;6.22;2.10;;;;;;;14.69;71.84;101082.41;1857476;75;21123;-59
2022/07/18 04:23:02;;;;;;;4.80;2.05;;;;;;;14.83;71.75;101094.48;1853315;75;21053;-59
2022/07/18 04:25:31;;;;;;;4.60;1.95;;;;;;;14.94;71.44;101091.71;1845860;75;20979;-59
2022/07/18 04:27:58;;;;;;;4.90;2.35;;;;;;;15.03;71.14;101090.92;1846550;75;21015;-59
2022/07/18 04:30:26;;;;;;;4.30;1.80;;;;;;;15.08;70.88;101087.02;1850492;75;21092;-59
2022/07/18 04:32:54;;;;;;;4.25;1.60;;;;;;;15.03;70.77;101086.95;1842963;75;21099;-59
2022/07/18 04:35:22;;;;;;;4.70;2.37;;;;;;;15.01;71.03;101084.92;1846860;75;21085;-59
2022/07/18 04:37:49;;;;;;;3.67;1.80;;;;;;;15.05;71.09;101087.64;1842123;75;20987;-59
2022/07/18 04:40:17;;;;;;;7.90;2.00;;;;;;;15.20;70.92;101095.23;1855494;75;21066;-60
2022/07/18 04:42:43;;;;;;;4.67;1.80;;;;;;;15.34;70.55;101086.05;1850081;75;21037;-59
2022/07/18 04:45:10;;;;;;;4.35;1.92;;;;;;;15.46;70.19;101082.28;1818209;75;21062;-59
2022/07/18 04:47:38;;;;;;;4.17;2.15;;;;;;;15.55;69.80;101092.09;1841639;75;21005;-59
2022/07/18 04:50:06;;;;;;;6.22;2.00;;;;;;;15.60;69.20;101091.64;1849095;75;21577;-59
2022/07/18 04:52:39;;;;;;;5.83;2.27;;;;;;;15.69;68.70;101099.29;1852671;75;21393;-60
2022/07/18 04:55:08;;;;;;;5.70;2.33;;;;;;;15.78;68.46;101105.97;1850735;75;21041;-60
2022/07/18 04:57:34;;;;;;;5.55;2.50;;;;;;;15.84;68.31;101114.34;1874408;75;21160;-60
2022/07/18 05:00:07;;;;;;;7.83;2.42;;;;;;;15.83;68.24;101108.17;1845020;75;21057;-59
2022/07/18 05:02:34;;;;;;;5.08;1.75;;;;;;;15.83;68.23;101108.67;1849082;75;21047;-59
2022/07/18 05:05:00;;;;;;;4.75;1.80;;;;;;;15.84;67.89;101107.21;1845632;75;21081;-59
2022/07/18 05:07:27;;;;;;;6.00;2.12;;;;;;;15.85;67.89;101103.56;1857710;75;21445;-60
2022/07/18 05:09:55;;;;;;;5.30;2.30;;;;;;;15.96;67.77;101106.58;1851295;76;21144;-60
2022/07/18 05:12:23;;;;;;;5.65;2.25;;;;;;;16.10;67.60;101106.14;1848430;75;22195;-59
2022/07/18 05:14:50;;;;;;;5.60;2.60;;;;;;;16.20;67.42;101108.78;1846852;75;21018;-59
2022/07/18 05:17:17;;;;;;;6.00;2.47;;;;;;;16.20;67.13;101109.28;1841325;75;21019;-59
2022/07/18 05:19:44;;;;;;;5.05;2.12;;;;;;;16.15;67.15;101111.89;1853289;75;21012;-59
2022/07/18 05:22:10;;;;;;;7.30;2.12;;;;;;;16.12;67.05;101117.95;1848599;75;21094;-59
2022/07/18 05:24:37;;;;;;;4.95;2.17;;;;;;;16.15;66.93;101103.92;1840486;75;21035;-59
2022/07/18 05:27:04;;;;;;;3.95;1.80;;;;;;;16.25;67.07;101105.71;1838210;75;21089;-59
2022/07/18 05:29:31;;;;;;;4.08;1.92;;;;;;;16.30;66.50;101098.98;1837384;75;21039;-59
2022/07/18 05:31:57;;;;;;;5.20;2.30;;;;;;;16.38;66.53;101102.77;1838741;75;21054;-59
2022/07/18 05:34:24;;;;;;;5.33;2.20;;;;;;;16.46;66.81;101100.23;1845217;75;21807;-60
2022/07/18 05:36:50;;;;;;;4.15;2.02;;;;;;;16.57;66.24;101100.54;1852318;75;21081;-60
2022/07/18 05:39:17;;;;;;;4.60;2.00;;;;;;;16.67;65.87;101097.36;1838526;75;21054;-61
2022/07/18 05:41:43;;;;;;;7.12;1.82;;;;;;;16.75;65.87;101097.47;1837728;75;21105;-59
2022/07/18 05:44:10;;;;;;;12.13;2.80;;;;;;;16.82;65.17;101099.88;1849377;75;21105;-60
2022/07/18 05:46:36;;;;;;;6.28;1.98;;;;;;;16.90;65.01;101096.53;1850457;75;21101;-60
2022/07/18 05:49:04;;;;;;;6.15;2.20;;;;;;;17.01;64.64;101098.16;1852370;75;21101;-59
2022/07/18 05:51:30;;;;;;;6.95;2.05;;;;;;;17.12;64.58;101097.97;1851611;75;21065;-59
2022/07/18 05:53:57;;;;;;;5.55;2.33;;;;;;;17.21;64.44;101101.05;1851286;75;21092;-59
2022/07/18 05:56:23;;;;;;;4.53;1.70;;;;;;;17.26;64.28;101096.62;1857886;76;21054;-59
2022/07/18 05:58:50;;;;;;;4.55;1.90;;;;;;;17.31;63.91;101097.51;1853461;75;21114;-59
2022/07/18 06:01:19;;;;;;;6.30;2.15;;;;;;;17.33;63.23;101092.88;1842039;76;21046;-59
2022/07/18 06:03:47;;;;;;;8.68;2.67;;;;;;;17.38;63.10;101099.44;1849021;75;21061;-59
2022/07/18 06:06:15;;;;;;;3.95;1.92;;;;;;;17.49;62.71;101098.37;1836092;75;20991;-61
2022/07/18 06:08:42;;;;;;;4.45;2.08;;;;;;;17.62;63.07;101098.84;1856729;75;20983;-59
2022/07/18 06:11:09;;;;;;;4.70;1.70;;;;;;;17.73;63.37;101098.27;1811704;77;21025;-59
2022/07/18 06:13:37;;;;;;;7.35;2.12;;;;;;;17.82;63.12;101100.86;1791748;79;21042;-59
2022/07/18 06:16:05;;;;;;;4.72;2.12;;;;;;;17.91;62.23;101102.30;1792406;77;21498;-59
2022/07/18 06:18:34;;;;;;;4.80;2.22;;;;;;;17.95;62.38;101097.81;1817365;77;21038;-59
2022/07/18 06:21:02;;;;;;;5.03;1.98;;;;;;;18.00;61.90;101096.03;1786402;78;21612;-59
2022/07/18 06:23:31;;;;;;;8.58;2.50;;;;;;;18.03;60.81;101095.73;1788809;78;21057;-58
2022/07/18 06:25:57;;;;;;;8.10;2.55;;;;;;;18.14;60.56;101100.81;1782627;78;21059;-59
2022/07/18 06:28:28;;;;;;;4.70;1.57;;;;;;;18.19;60.43;101093.20;1781190;78;21015;-59
2022/07/18 06:30:54;;;;;;;5.55;1.98;;;;;;;18.24;60.84;101095.41;1793940;78;21555;-59
2022/07/18 06:33:21;;;;;;;4.85;1.82;;;;;;;18.28;60.18;101088.75;1789121;78;21038;-59
2022/07/18 06:35:48;;;;;;;6.15;1.92;;;;;;;18.32;60.36;101090.61;1781767;78;21101;-58
2022/07/18 06:38:15;;;;;;;4.85;1.90;;;;;;;18.35;60.14;101085.80;1807283;77;21105;-59
2022/07/18 06:40:42;;;;;;;3.72;1.82;;;;;;;18.38;60.53;101085.48;1778530;78;21006;-59
2022/07/18 06:43:09;;;;;;;8.18;2.20;;;;;;;18.45;59.45;101087.54;1786185;78;21059;-59
2022/07/18 06:45:36;;;;;;;14.50;3.95;;;;;;;18.52;59.76;101084.58;1789711;78;21468;-58
2022/07/18 06:48:03;;;;;;;5.75;2.15;;;;;;;18.58;59.14;101077.29;1759569;79;21117;-59
2022/07/18 06:50:30;;;;;;;4.53;2.22;;;;;;;18.61;58.81;101072.98;1785784;78;21054;-58
2022/07/18 06:52:58;;;;;;;7.60;2.20;;;;;;;18.64;59.08;101081.14;1788145;78;21028;-58
2022/07/18 06:55:24;;;;;;;11.20;2.60;;;;;;;18.63;59.30;101074.98;1789597;78;21104;-58
2022/07/18 06:57:51;;;;;;;5.25;2.02;;;;;;;18.66;59.82;101078.67;1791502;78;21061;-58
2022/07/18 07:00:18;;;;;;;7.22;2.70;;;;;;;18.73;59.46;101071.70;1791030;78;21955;-59
2022/07/18 07:02:47;;;;;;;4.53;2.08;;;;;;;18.82;59.24;101074.41;1794380;78;21050;-59
2022/07/18 07:05:17;;;;;;;4.05;1.75;;;;;;;18.87;59.57;101076.12;1795410;78;21089;-59
2022/07/18 07:07:45;;;;;;;5.50;2.20;;;;;;;18.97;59.34;101079.49;1800412;78;21110;-59
2022/07/18 07:10:12;;;;;;;4.22;1.80;;;;;;;19.12;58.64;101081.88;1799604;78;21061;-59
2022/07/18 07:12:42;;;;;;;8.08;2.22;;;;;;;19.23;58.19;101078.56;1790146;78;21867;-58
2022/07/18 07:15:10;;;;;;;5.75;2.00;;;;;;;19.34;57.95;101080.94;1806988;78;21531;-58
2022/07/18 07:17:38;;;;;;;3.90;1.90;;;;;;;19.45;58.21;101087.31;1775027;78;21101;-58
2022/07/18 07:20:06;;;;;;;5.80;1.90;;;;;;;19.54;56.43;101074.80;1794638;78;21451;-59
2022/07/18 07:22:43;;;;;;;8.73;2.00;;;;;;;19.62;56.25;101074.82;1795182;78;21598;-59
2022/07/18 07:25:12;;;;;;;9.60;2.12;;;;;;;19.67;55.42;101074.33;1779160;78;21097;-58
2022/07/18 07:27:38;;;;;;;4.70;2.02;;;;;;;19.71;55.68;101071.65;1789265;78;21080;-58
2022/07/18 07:30:07;;;;;;;4.60;2.30;;;;;;;19.78;55.61;101079.86;1799507;78;21045;-59
2022/07/18 07:32:38;;;;;;;4.42;1.85;;;;;;;19.81;55.78;101073.69;1799902;78;20998;-58
2022/07/18 07:35:11;;;;;;;8.18;2.20;;;;;;;19.82;54.18;101075.37;1788228;78;21061;-57
2022/07/18 07:37:39;;;;;;;4.50;1.90;;;;;;;19.83;54.12;101073.02;1777205;78;21046;-58
2022/07/18 07:40:08;;;;;;;6.20;2.20;;;;;;;19.85;54.29;101071.03;1781543;78;21358;-58
2022/07/18 07:42:34;;;;;;;6.92;2.02;;;;;;;19.89;54.82;101079.55;1785765;79;21486;-58
2022/07/18 07:45:01;;;;;;;4.75;2.00;;;;;;;19.97;54.48;101080.87;1769879;79;21101;-59
2022/07/18 07:47:28;;;;;;;7.83;2.00;;;;;;;20.04;54.18;101071.70;1775993;80;21556;-58
2022/07/18 07:49:56;;;;;;;5.62;2.12;;;;;;;20.11;54.50;101075.86;1811403;77;21131;-59
2022/07/18 07:52:23;;;;;;;4.08;1.55;;;;;;;20.23;53.52;101073.98;1811254;77;21086;-58
2022/07/18 07:54:51;;;;;;;3.52;1.60;;;;;;;20.36;52.86;101080.67;1788956;78;21100;-59
2022/07/18 07:57:18;;;;;;;4.40;1.62;;;;;;;20.45;52.85;101072.13;1778214;78;21104;-59
2022/07/18 07:59:45;;;;;;;4.12;1.85;;;;;;;20.53;50.89;101080.13;1782263;78;21051;-59
2022/07/18 08:02:12;;;;;;;4.35;1.82;;;;;;;20.58;50.06;101071.91;1796811;78;22079;-59
2022/07/18 08:04:38;;;;;;;6.15;1.80;;;;;;;20.63;50.55;101070.09;1810262;78;20999;-59
2022/07/18 08:07:05;;;;;;;6.40;2.08;;;;;;;20.70;50.05;101076.42;1793985;78;21049;-59
2022/07/18 08:09:33;;;;;;;4.95;1.60;;;;;;;20.77;50.47;101081.91;1793230;78;21026;-59
2022/07/18 08:12:01;;;;;;;3.95;1.75;;;;;;;20.80;49.33;101068.71;1794634;79;21053;-59
2022/07/18 08:14:28;;;;;;;4.30;1.50;;;;;;;20.80;49.07;101066.86;1795035;78;21052;-59
2022/07/18 08:16:55;;;;;;;3.58;1.35;;;;;;;20.77;47.87;101062.67;1790400;78;21061;-59
2022/07/18 08:19:22;;;;;;;5.67;1.70;;;;;;;20.80;48.68;101062.84;1785612;78;21636;-58
2022/07/18 08:21:50;;;;;;;4.15;1.40;;;;;;;20.87;49.51;101065.16;1793123;78;21116;-59
2022/07/18 08:24:17;;;;;;;3.52;1.40;;;;;;;20.96;48.12;101068.61;1787963;78;21367;-59
2022/07/18 08:26:44;;;;;;;4.87;1.50;;;;;;;20.97;47.14;101055.58;1799804;78;21121;-60
2022/07/18 08:29:11;;;;;;;4.55;1.50;;;;;;;20.96;46.37;101063.27;1781500;78;21089;-59
2022/07/18 08:31:38;;;;;;;5.67;2.42;;;;;;;21.01;47.48;101062.75;1798889;78;21515;-59
2022/07/18 08:34:05;;;;;;;3.92;1.27;;;;;;;21.06;47.75;101072.42;1814112;77;21105;-60
2022/07/18 08:36:31;;;;;;;3.83;1.27;;;;;;;21.11;47.95;101066.04;1817545;77;21018;-60
2022/07/18 08:38:58;;;;;;;4.72;1.30;;;;;;;21.20;46.62;101070.35;1812323;77;21707;-59
2022/07/18 08:41:24;;;;;;;4.03;1.27;;;;;;;21.27;45.81;101069.97;1813758;77;21046;-59
2022/07/18 08:43:51;;;;;;;2.98;1.15;;;;;;;21.37;46.75;101070.23;1816722;77;21639;-60
2022/07/18 08:46:21;;;;;;;4.08;1.25;;;;;;;21.50;45.98;101074.52;1817582;77;21011;-59
2022/07/18 08:48:49;;;;;;;4.83;1.52;;;;;;;21.58;46.30;101072.31;1812002;77;21124;-59
2022/07/18 08:51:15;;;;;;;4.78;1.45;;;;;;;21.57;45.35;101070.14;1816863;77;21107;-59
2022/07/18 08:53:43;;;;;;;6.00;1.95;;;;;;;21.56;45.47;101079.69;1813746;77;21140;-59
2022/07/18 08:56:09;;;;;;;5.65;1.32;;;;;;;21.52;45.62;101083.23;1808783;78;21070;-60
2022/07/18 08:58:36;;;;;;;6.30;1.37;;;;;;;21.54;45.25;101079.05;1818904;78;21058;-59
2022/07/18 09:01:02;;;;;;;2.98;1.07;;;;;;;21.57;45.00;101074.64;1795513;78;21552;-59
2022/07/18 09:03:29;;;;;;;3.45;1.20;;;;;;;21.63;46.11;101073.95;1790872;78;21126;-59
2022/07/18 09:06:10;;;;;;;2.90;1.20;;;;;;;21.69;45.28;101075.91;1808863;77;21054;-59
2022/07/18 09:08:39;;;;;;;2.55;1.02;;;;;;;21.70;45.04;101073.06;1812562;77;21077;-58
2022/07/18 09:11:11;;;;;;;3.20;1.20;;;;;;;21.74;45.08;101068.66;1776787;78;21064;-58
2022/07/18 09:13:46;;;;;;;9.35;1.15;;;;;;;21.80;44.96;101067.95;1799689;78;21137;-59
2022/07/18 09:16:13;;;;;;;3.02;1.20;;;;;;;21.80;44.06;101065.27;1767839;79;22011;-59
2022/07/18 09:18:46;;;;;;;3.75;1.10;;;;;;;21.79;44.24;101068.47;1782901;78;21427;-60
2022/07/18 09:21:18;;;;;;;6.50;1.55;;;;;;;21.85;43.81;101061.55;1808658;77;21034;-59
2022/07/18 09:23:50;;;;;;;5.65;1.30;;;;;;;21.95;43.86;101063.46;1801319;79;21043;-59
2022/07/18 09:26:39;;;;;;;2.55;1.07;;;;;;;22.04;43.71;101058.86;1773982;80;21023;-59
2022/07/18 09:29:05;;;;;;;2.72;0.90;;;;;;;22.06;43.59;101061.69;1792956;78;21412;-59
2022/07/18 09:31:32;;;;;;;2.87;0.93;;;;;;;22.02;42.76;101059.06;1783299;78;21054;-59
2022/07/18 09:34:00;;;;;;;3.52;0.88;;;;;;;22.02;43.14;101064.42;1795753;78;21598;-59
2022/07/18 09:36:27;;;;;;;3.33;0.90;;;;;;;22.05;43.10;101057.33;1811436;78;21094;-59
2022/07/18 09:38:54;;;;;;;3.83;0.90;;;;;;;22.13;42.63;101060.97;1772782;80;21099;-60
2022/07/18 09:41:32;;;;;;;2.50;0.90;;;;;;;22.22;41.54;101057.18;1780071;78;21050;-59
2022/07/18 09:43:59;;;;;;;2.15;0.75;;;;;;;22.25;41.54;101058.16;1800993;78;21078;-58
2022/07/18 09:46:25;;;;;;;3.83;1.00;;;;;;;22.28;42.21;101059.66;1810136;77;21034;-59
2022/07/18 09:49:10;;;;;;;2.05;0.70;;;;;;;22.37;41.47;101062.59;1794921;79;21450;-60
2022/07/18 09:51:37;;;;;;;;;;;;;;;22.41;41.87;101058.02;1792318;78;21082;-58
2022/07/18 09:54:04;;;;;;;1.72;0.60;;;;;;;22.48;41.55;101054.59;1777476;79;21212;-58
2022/07/18 09:56:33;;;;;;;2.22;0.70;;;;;;;22.52;42.41;101051.88;1779470;79;20999;-58
2022/07/18 09:58:59;;;;;;;2.22;0.70;;;;;;;22.58;42.06;101050.63;1764960;79;21058;-58
2022/07/18 10:01:26;;;;;;;3.77;0.82;;;;;;;22.58;40.64;101055.16;1771050;79;21050;-59
2022/07/18 10:03:53;;;;;;;4.22;0.90;;;;;;;22.54;41.19;101056.53;1769141;79;21082;-59
2022/07/18 10:06:19;;;;;;;10.50;1.00;;;;;;;22.55;42.06;101056.36;1774499;79;21155;-59
2022/07/18 10:08:46;;;;;;;2.62;0.90;;;;;;;22.62;41.85;101060.47;1776320;79;21142;-58
2022/07/18 10:11:14;;;;;;;2.02;0.60;;;;;;;22.67;41.64;101050.53;1765259;79;21062;-59
2022/07/18 10:13:41;;;;;;;2.30;0.65;;;;;;;22.68;41.41;101052.17;1771793;79;21054;-59
2022/07/18 10:16:08;;;;;;;2.58;0.70;;;;;;;22.67;41.51;101050.02;1774581;79;21481;-59
2022/07/18 10:18:38;;;;;;;1.77;0.53;;;;;;;22.67;40.64;101051.35;1773214;79;21122;-58
2022/07/18 10:21:09;;;;;;;2.17;0.60;;;;;;;22.64;40.45;101046.36;1784150;79;21081;-59
2022/07/18 10:23:41;;;;;;;1.77;0.55;;;;;;;22.61;40.70;101049.41;1772429;80;21097;-58
2022/07/18 10:26:16;;;;;;;2.02;0.57;;;;;;;22.56;40.32;101045.11;1779256;79;21134;-58
2022/07/18 10:29:03;;;;;;;3.58;0.80;;;;;;;22.55;39.33;101048.83;1762448;79;21073;-59
2022/07/18 10:31:37;;;;;;;2.42;0.62;;;;;;;22.60;38.84;101057.14;1771098;79;21929;-60
2022/07/18 10:34:10;;;;;;;4.60;0.70;;;;;;;22.71;38.69;101040.59;1777890;79;21019;-60
2022/07/18 10:36:56;;;;;;;3.15;0.53;;;;;;;22.81;39.45;101041.61;1773610;79;21046;-60
2022/07/18 10:39:34;;;;;;;;;;;;;;;22.93;39.23;101042.81;1762182;79;21500;-60
2022/07/18 10:42:13;;;;;;;1.80;0.47;;;;;;;23.05;38.74;101036.94;1768930;79;20234;-58
2022/07/18 10:44:40;;;;;;;4.25;0.70;;;;;;;23.18;38.78;101029.06;1776794;79;21141;-58
2022/07/18 10:47:12;;;;;;;1.90;0.50;;;;;;;23.35;35.36;101025.62;1775642;79;20999;-58
2022/07/18 10:49:59;;;;;;;2.15;0.60;;;;;;;23.48;36.67;101041.05;1780862;79;21509;-58
2022/07/18 10:52:39;;;;;;;2.15;0.42;;;;;;;23.66;37.01;101029.85;1762372;79;21011;-62
2022/07/18 10:55:18;;;;;;;0.95;0.42;;;;;;;23.81;36.37;101023.87;1775680;79;21011;-59
2022/07/18 10:57:54;;;;;;;9.38;0.78;;;;;;;23.90;36.69;101021.91;1774669;79;21122;-59
2022/07/18 11:00:28;;;;;;;0.78;0.30;;;;;;;24.02;36.86;101018.98;1769672;79;21062;-58
2022/07/18 11:03:07;;;;;;;1.82;0.50;;;;;;;24.11;35.93;101018.34;1768486;79;21007;-58
2022/07/18 11:05:46;;;;;;;1.42;0.37;;;;;;;24.13;35.54;101020.31;1776974;79;21058;-60
2022/07/18 11:08:17;;;;;;;0.53;0.30;;;;;;;24.19;35.96;101019.53;1743832;80;21058;-59
2022/07/18 11:10:51;;;;;;;3.75;0.70;;;;;;;24.30;36.02;101021.65;1771069;79;21092;-59
2022/07/18 11:13:28;;;;;;;1.37;0.45;;;;;;;24.38;35.61;101022.02;1767500;79;21070;-59
2022/07/18 11:16:06;;;;;;;1.55;0.50;;;;;;;24.45;35.44;101018.02;1773553;79;21113;-59
2022/07/18 11:18:45;;;;;;;1.42;0.47;;;;;;;24.49;35.81;101009.84;1773728;79;21005;-58
2022/07/18 11:21:32;;;;;;;1.60;0.50;;;;;;;24.55;34.65;101021.72;1778369;79;21046;-57
2022/07/18 11:24:10;;;;;;;0.93;0.30;;;;;;;24.50;35.60;101010.17;1764728;79;22114;-59
2022/07/18 11:26:44;;;;;;;2.05;0.40;;;;;;;24.53;35.10;101005.75;1768315;79;23470;-60
2022/07/18 11:29:14;;;;;;;0.60;0.20;;;;;;;24.54;34.27;101007.91;1770710;80;21407;-60
2022/07/18 11:31:54;;;;;;;1.42;0.40;;;;;;;24.49;34.97;101016.58;1774762;79;21122;-59
2022/07/18 11:34:22;;;;;;;1.50;0.40;;;;;;;24.46;35.39;101006.20;1769547;79;21030;-60
2022/07/18 11:36:49;;;;;;;1.12;0.40;;;;;;;24.50;35.36;101010.70;1773259;79;21189;-59
2022/07/18 11:39:29;;;;;;;1.45;0.40;;;;;;;24.63;36.10;101010.27;1769236;79;21048;-59
2022/07/18 11:41:56;;;;;;;1.30;0.50;;;;;;;24.73;35.61;101007.70;1747618;79;21056;-59
2022/07/18 11:44:26;;;;;;;1.40;0.40;;;;;;;24.80;34.27;100991.09;1769216;79;21055;-59